createdAt,value
2022-12-05T00:01:17.836Z,12.73
2022-12-05T00:03:45.777Z,11.80
2022-12-05T00:06:13.076Z,12.20
2022-12-05T00:08:40.281Z,12.73
2022-12-05T00:11:15.840Z,12.63
2022-12-05T00:13:43.647Z,13.50
2022-12-05T00:16:12.835Z,12.27
2022-12-05T00:18:40.671Z,11.75
2022-12-05T00:21:12.289Z,11.88
2022-12-05T00:23:39.306Z,12.18
2022-12-05T00:26:06.718Z,12.10
2022-12-05T00:28:34.430Z,11.40
2022-12-05T00:31:06.196Z,13.30
2022-12-05T00:33:33.461Z,12.70
2022-12-05T00:36:06.579Z,12.65
2022-12-05T00:38:33.660Z,11.13
2022-12-05T00:41:12.068Z,11.63
2022-12-05T00:43:39.232Z,11.80
2022-12-05T00:46:11.647Z,12.40
2022-12-05T00:48:39.584Z,11.93
2022-12-05T00:51:08.728Z,11.52
2022-12-05T00:53:36.056Z,11.55
2022-12-05T00:56:08.023Z,10.85
2022-12-05T00:58:36.127Z,10.25
2022-12-05T01:01:08.660Z,10.05
2022-12-05T01:03:36.213Z,11.27
2022-12-05T01:06:05.991Z,10.57
2022-12-05T01:08:34.468Z,10.25
2022-12-05T01:11:01.886Z,10.57
2022-12-05T01:13:29.664Z,10.27
2022-12-05T01:15:56.771Z,10.45
2022-12-05T01:18:24.643Z,10.20
2022-12-05T01:20:51.826Z,11.05
2022-12-05T01:23:19.264Z,10.35
2022-12-05T01:25:48.648Z,10.93
2022-12-05T01:28:16.686Z,10.38
2022-12-05T01:30:47.932Z,10.40
2022-12-05T01:33:15.214Z,9.70
2022-12-05T01:35:42.742Z,10.02
2022-12-05T01:38:12.355Z,9.70
2022-12-05T01:40:40.047Z,10.40
2022-12-05T01:43:17.394Z,9.65
2022-12-05T01:45:46.274Z,9.45
2022-12-05T01:48:26.188Z,10.38
2022-12-05T01:50:53.641Z,9.95
2022-12-05T01:53:20.952Z,9.13
2022-12-05T01:55:50.039Z,10.20
2022-12-05T01:58:18.398Z,10.13
2022-12-05T02:00:46.224Z,10.00
2022-12-05T02:03:18.700Z,9.90
2022-12-05T02:05:51.292Z,9.38
2022-12-05T02:08:18.995Z,10.35
2022-12-05T02:10:53.837Z,10.65
2022-12-05T02:13:58.648Z,10.30
2022-12-05T02:16:46.491Z,11.05
2022-12-05T02:19:13.490Z,10.40
2022-12-05T02:22:23.300Z,9.85
2022-12-05T02:25:37.365Z,9.57
2022-12-05T02:28:27.120Z,9.15
2022-12-05T02:31:24.673Z,10.20
2022-12-05T02:34:10.687Z,9.60
2022-12-05T02:36:46.062Z,9.77
2022-12-05T02:39:28.756Z,10.07
2022-12-05T02:42:05.362Z,9.95
2022-12-05T02:44:41.400Z,9.80
2022-12-05T02:47:09.547Z,9.68
2022-12-05T02:49:37.726Z,10.15
2022-12-05T02:52:10.468Z,9.60
2022-12-05T02:54:41.260Z,9.77
2022-12-05T02:57:10.169Z,10.23
2022-12-05T02:59:37.515Z,10.07
2022-12-05T03:02:05.763Z,9.70
2022-12-05T03:04:33.492Z,9.98
2022-12-05T03:07:07.132Z,9.27
2022-12-05T03:09:39.719Z,8.45
2022-12-05T03:12:31.081Z,8.82
2022-12-05T03:15:12.586Z,8.85
2022-12-05T03:17:49.185Z,8.00
2022-12-05T03:20:27.947Z,8.18
2022-12-05T03:23:08.038Z,7.72
2022-12-05T03:25:58.090Z,7.32
2022-12-05T03:28:29.726Z,7.43
2022-12-05T03:31:02.233Z,7.75
2022-12-05T03:33:36.019Z,7.40
2022-12-05T03:36:19.018Z,8.68
2022-12-05T03:39:09.009Z,8.18
2022-12-05T03:41:42.296Z,7.95
2022-12-05T03:44:24.478Z,8.88
2022-12-05T03:47:03.765Z,9.52
2022-12-05T03:49:43.138Z,10.32
2022-12-05T03:52:20.063Z,10.10
2022-12-05T03:54:53.382Z,8.45
2022-12-05T03:57:52.544Z,9.02
2022-12-05T04:00:23.068Z,9.95
2022-12-05T04:03:09.752Z,10.00
2022-12-05T04:05:49.856Z,10.40
2022-12-05T04:08:29.558Z,10.43
2022-12-05T04:11:04.849Z,10.70
2022-12-05T04:14:01.462Z,11.07
2022-12-05T04:16:52.463Z,11.02
2022-12-05T04:20:04.336Z,10.40
2022-12-05T04:22:32.686Z,11.70
2022-12-05T04:25:21.056Z,11.52
2022-12-05T04:28:10.293Z,11.07
2022-12-05T04:30:49.343Z,10.60
2022-12-05T04:33:34.805Z,10.07
2022-12-05T04:36:23.062Z,10.98
2022-12-05T04:39:05.489Z,12.38
2022-12-05T04:41:46.983Z,10.85
2022-12-05T04:44:18.540Z,11.07
2022-12-05T04:46:48.269Z,10.25
2022-12-05T04:49:21.749Z,11.48
2022-12-05T04:51:52.693Z,11.75
2022-12-05T04:54:38.591Z,11.18
2022-12-05T04:57:12.821Z,10.75
2022-12-05T04:59:39.804Z,9.98
2022-12-05T05:02:12.979Z,11.95
2022-12-05T05:04:51.070Z,12.20
2022-12-05T05:07:18.884Z,11.20
2022-12-05T05:09:45.937Z,11.93
2022-12-05T05:12:18.762Z,11.10
2022-12-05T05:14:46.300Z,12.00
2022-12-05T05:17:13.236Z,12.68
2022-12-05T05:19:40.354Z,11.82
2022-12-05T05:22:07.266Z,11.48
2022-12-05T05:24:34.306Z,11.73
2022-12-05T05:27:01.236Z,10.90
2022-12-05T05:29:28.305Z,10.20
2022-12-05T05:31:55.389Z,10.82
2022-12-05T05:34:22.301Z,10.80
2022-12-05T05:36:52.891Z,11.27
2022-12-05T05:39:19.889Z,10.32
2022-12-05T05:41:47.004Z,10.00
2022-12-05T05:44:14.056Z,8.98
2022-12-05T05:46:41.082Z,9.55
2022-12-05T05:49:08.120Z,9.73
2022-12-05T05:51:35.257Z,9.40
2022-12-05T05:54:02.320Z,11.73
2022-12-05T05:56:29.684Z,16.67
2022-12-05T05:59:02.854Z,12.63
2022-12-05T06:01:30.492Z,11.45
2022-12-05T06:03:58.267Z,11.57
2022-12-05T06:06:26.385Z,11.52
2022-12-05T06:08:54.691Z,11.32
2022-12-05T06:11:26.380Z,11.15
2022-12-05T06:14:01.052Z,10.57
2022-12-05T06:16:29.519Z,10.88
2022-12-05T06:18:56.964Z,11.57
2022-12-05T06:21:24.633Z,11.23
2022-12-05T06:23:51.744Z,10.73
2022-12-05T06:26:20.655Z,10.07
2022-12-05T06:28:47.902Z,28.45
2022-12-05T06:31:20.479Z,22.00
2022-12-05T06:33:48.205Z,10.57
2022-12-05T06:36:18.477Z,10.60
2022-12-05T06:38:45.450Z,10.13
2022-12-05T06:41:15.574Z,10.32
2022-12-05T06:43:43.318Z,10.07
2022-12-05T06:46:12.399Z,11.23
2022-12-05T06:48:40.302Z,11.10
2022-12-05T06:51:10.513Z,11.02
2022-12-05T06:53:37.724Z,9.27
2022-12-05T06:56:08.197Z,10.60
2022-12-05T06:58:35.260Z,9.38
2022-12-05T07:01:20.764Z,10.10
2022-12-05T07:03:51.168Z,10.27
2022-12-05T07:06:18.296Z,10.02
2022-12-05T07:08:45.405Z,11.25
2022-12-05T07:11:12.271Z,10.63
2022-12-05T07:13:39.281Z,11.05
2022-12-05T07:16:07.365Z,10.98
2022-12-05T07:18:36.103Z,11.07
2022-12-05T07:21:14.026Z,10.48
2022-12-05T07:23:44.030Z,10.25
2022-12-05T07:26:16.759Z,9.65
2022-12-05T07:28:43.743Z,16.55
2022-12-05T07:31:13.925Z,14.70
2022-12-05T07:33:41.252Z,11.20
2022-12-05T07:36:11.108Z,10.60
2022-12-05T07:38:38.528Z,9.65
2022-12-05T07:41:12.808Z,8.57
2022-12-05T07:43:41.420Z,9.93
2022-12-05T07:46:11.546Z,9.05
2022-12-05T07:48:39.005Z,9.10
2022-12-05T07:51:08.132Z,9.35
2022-12-05T07:53:35.954Z,8.38
2022-12-05T07:56:06.128Z,9.38
2022-12-05T07:58:33.996Z,10.10
2022-12-05T08:01:21.898Z,10.35
2022-12-05T08:03:49.981Z,10.30
2022-12-05T08:06:19.975Z,10.38
2022-12-05T08:08:50.034Z,10.85
2022-12-05T08:11:23.560Z,11.07
2022-12-05T08:13:50.838Z,10.75
2022-12-05T08:16:21.653Z,9.98
2022-12-05T08:18:48.992Z,9.98
2022-12-05T08:21:19.586Z,11.20
2022-12-05T08:23:47.525Z,9.52
2022-12-05T08:26:21.033Z,10.20
2022-12-05T08:28:52.775Z,10.98
2022-12-05T08:31:24.355Z,9.85
2022-12-05T08:33:57.153Z,10.40
2022-12-05T08:36:27.841Z,9.63
2022-12-05T08:39:04.083Z,10.15
2022-12-05T08:41:31.174Z,10.50
2022-12-05T08:44:00.293Z,11.23
2022-12-05T08:46:27.377Z,10.48
2022-12-05T08:48:54.443Z,10.50
2022-12-05T08:51:21.653Z,10.70
2022-12-05T08:53:48.813Z,12.02
2022-12-05T08:56:16.115Z,11.10
2022-12-05T08:58:43.778Z,11.07
2022-12-05T09:01:13.923Z,11.52
2022-12-05T09:03:47.542Z,11.48
2022-12-05T09:06:20.959Z,10.40
2022-12-05T09:08:49.124Z,12.10
2022-12-05T09:11:21.683Z,10.02
2022-12-05T09:13:48.992Z,12.15
2022-12-05T09:16:18.753Z,10.52
2022-12-05T09:18:46.158Z,9.25
2022-12-05T09:21:17.603Z,9.77
2022-12-05T09:23:45.346Z,10.05
2022-12-05T09:26:15.530Z,8.50
2022-12-05T09:28:44.182Z,8.20
2022-12-05T09:31:14.473Z,8.07
2022-12-05T09:33:41.902Z,8.13
2022-12-05T09:36:13.285Z,7.60
2022-12-05T09:38:40.886Z,7.55
2022-12-05T09:41:54.066Z,7.18
2022-12-05T09:44:47.385Z,7.57
2022-12-05T09:47:23.756Z,7.80
2022-12-05T09:50:16.719Z,7.80
2022-12-05T09:53:06.840Z,7.72
2022-12-05T09:55:44.901Z,7.32
2022-12-05T09:58:32.864Z,7.40
2022-12-05T10:01:17.025Z,7.43
2022-12-05T10:04:22.551Z,8.77
2022-12-05T10:07:03.752Z,9.45
2022-12-05T10:09:33.765Z,10.35
2022-12-05T10:12:23.433Z,10.48
2022-12-05T10:15:27.972Z,10.60
2022-12-05T10:18:02.544Z,10.23
2022-12-05T10:20:36.688Z,10.52
2022-12-05T10:23:28.243Z,11.50
2022-12-05T10:26:05.207Z,10.90
2022-12-05T10:28:39.760Z,10.88
2022-12-05T10:31:10.975Z,12.77
2022-12-05T10:33:43.425Z,11.10
2022-12-05T10:36:13.354Z,13.80
2022-12-05T10:38:43.033Z,13.20
2022-12-05T10:41:15.015Z,15.40
2022-12-05T10:43:44.852Z,13.35
2022-12-05T10:46:17.059Z,12.40
2022-12-05T10:48:44.691Z,14.30
2022-12-05T10:51:16.626Z,11.93
2022-12-05T10:53:51.122Z,12.85
2022-12-05T10:56:41.525Z,12.35
2022-12-05T10:59:12.059Z,14.00
2022-12-05T11:01:47.019Z,11.80
2022-12-05T11:04:44.084Z,12.40
2022-12-05T11:07:27.269Z,13.63
2022-12-05T11:09:54.788Z,13.75
2022-12-05T11:12:25.449Z,13.80
2022-12-05T11:15:06.556Z,13.68
2022-12-05T11:17:40.129Z,13.68
2022-12-05T11:20:27.616Z,13.38
2022-12-05T11:22:56.539Z,13.10
2022-12-05T11:25:34.014Z,13.02
2022-12-05T11:28:20.954Z,12.93
2022-12-05T11:30:58.644Z,13.32
2022-12-05T11:33:34.180Z,13.45
2022-12-05T11:36:23.425Z,13.15
2022-12-05T11:38:51.176Z,12.75
2022-12-05T11:41:25.986Z,13.27
2022-12-05T11:44:08.181Z,10.90
2022-12-05T11:47:00.277Z,11.75
2022-12-05T11:49:38.078Z,11.55
2022-12-05T11:52:21.140Z,11.18
2022-12-05T11:55:05.027Z,11.82
2022-12-05T11:57:32.640Z,15.68
2022-12-05T12:00:28.961Z,16.73
2022-12-05T12:03:43.723Z,11.88
2022-12-05T12:06:33.225Z,11.00
2022-12-05T12:09:12.795Z,12.07
2022-12-05T12:12:04.414Z,12.57
2022-12-05T12:14:31.316Z,12.48
2022-12-05T12:17:30.587Z,12.60
2022-12-05T12:20:12.221Z,11.45
2022-12-05T12:23:00.658Z,11.85
2022-12-05T12:25:45.523Z,13.35
2022-12-05T12:28:35.432Z,12.13
2022-12-05T12:31:11.601Z,11.95
2022-12-05T12:33:59.580Z,11.85
2022-12-05T12:37:08.091Z,11.63
2022-12-05T12:40:09.128Z,12.93
2022-12-05T12:42:56.736Z,11.95
2022-12-05T12:45:54.960Z,13.07
2022-12-05T12:48:47.829Z,12.07
2022-12-05T12:51:15.201Z,11.15
2022-12-05T12:53:55.854Z,11.98
2022-12-05T12:56:42.553Z,10.20
2022-12-05T12:59:30.953Z,11.88
2022-12-05T13:02:05.609Z,10.65
2022-12-05T13:05:02.869Z,9.73
2022-12-05T13:07:42.911Z,10.48
2022-12-05T13:10:34.784Z,10.38
2022-12-05T13:13:03.952Z,11.20
2022-12-05T13:15:41.020Z,8.52
2022-12-05T13:18:16.048Z,8.80
2022-12-05T13:20:44.484Z,10.32
2022-12-05T13:23:21.300Z,8.85
2022-12-05T13:25:50.489Z,9.25
2022-12-05T13:28:35.773Z,9.90
2022-12-05T13:31:04.841Z,9.93
2022-12-05T13:33:42.515Z,11.20
2022-12-05T13:36:31.167Z,11.80
2022-12-05T13:39:19.654Z,11.15
2022-12-05T13:42:08.808Z,11.18
2022-12-05T13:44:48.764Z,10.27
2022-12-05T13:47:45.669Z,10.90
2022-12-05T13:50:41.025Z,10.27
2022-12-05T13:53:31.042Z,10.85
2022-12-05T13:56:45.706Z,11.50
2022-12-05T13:59:12.676Z,10.20
2022-12-05T14:01:51.949Z,10.57
2022-12-05T14:04:43.431Z,10.23
2022-12-05T14:07:11.315Z,10.45
2022-12-05T14:09:54.114Z,11.70
2022-12-05T14:12:30.216Z,10.38
2022-12-05T14:14:57.510Z,10.60
2022-12-05T14:17:27.630Z,10.38
2022-12-05T14:20:42.416Z,10.18
2022-12-05T14:23:37.093Z,10.32
2022-12-05T14:26:31.480Z,10.35
2022-12-05T14:29:07.017Z,9.75
2022-12-05T14:32:04.398Z,10.43
2022-12-05T14:34:34.913Z,9.68
2022-12-05T14:37:17.207Z,9.50
2022-12-05T14:39:56.454Z,10.18
2022-12-05T14:42:42.780Z,9.15
2022-12-05T14:48:02.045Z,9.70
2022-12-05T14:50:45.389Z,11.73
2022-12-05T14:53:20.312Z,21.40
2022-12-05T14:55:57.432Z,11.40
2022-12-05T14:58:52.359Z,12.23
2022-12-05T15:01:28.235Z,11.90
2022-12-05T15:04:11.648Z,12.18
2022-12-05T15:06:52.899Z,12.07
2022-12-05T15:09:54.423Z,12.32
2022-12-05T15:12:30.082Z,12.30
2022-12-05T15:15:36.597Z,12.45
2022-12-05T15:18:33.280Z,12.98
2022-12-05T15:21:09.759Z,12.20
2022-12-05T15:23:45.185Z,10.93
2022-12-05T15:26:46.199Z,12.82
2022-12-05T15:29:28.775Z,12.38
2022-12-05T15:31:58.939Z,11.63
2022-12-05T15:34:34.665Z,12.32
2022-12-05T15:39:52.692Z,11.95
2022-12-05T15:42:29.217Z,11.73
2022-12-05T15:45:12.092Z,12.07
2022-12-05T15:47:40.207Z,12.43
2022-12-05T15:50:21.781Z,13.68
2022-12-05T15:53:02.888Z,12.52
2022-12-05T15:55:43.414Z,13.52
2022-12-05T15:58:20.995Z,12.65
2022-12-05T16:00:51.221Z,12.27
2022-12-05T16:03:24.240Z,12.40
2022-12-05T16:06:03.948Z,12.68
2022-12-05T16:08:40.682Z,13.90
2022-12-05T16:11:12.486Z,14.57
2022-12-05T16:13:49.644Z,13.75
2022-12-05T16:16:21.376Z,12.10
2022-12-05T16:18:58.712Z,13.18
2022-12-05T16:21:41.360Z,14.45
2022-12-05T16:24:22.225Z,15.20
2022-12-05T16:27:07.173Z,13.88
2022-12-05T16:29:35.508Z,14.40
2022-12-05T16:32:05.359Z,13.18
2022-12-05T16:34:34.216Z,13.23
2022-12-05T16:37:01.507Z,11.90
2022-12-05T16:39:28.856Z,13.00
2022-12-05T16:41:56.096Z,13.05
2022-12-05T16:44:28.942Z,12.23
2022-12-05T16:46:56.684Z,13.52
2022-12-05T16:49:34.575Z,12.20
2022-12-05T16:52:11.736Z,11.68
2022-12-05T16:54:38.705Z,12.00
2022-12-05T16:57:05.849Z,13.07
2022-12-05T16:59:38.000Z,13.82
2022-12-05T17:02:13.181Z,13.15
2022-12-05T17:04:40.387Z,11.15
2022-12-05T17:07:07.514Z,12.13
2022-12-05T17:09:34.498Z,11.80
2022-12-05T17:12:23.707Z,11.98
2022-12-05T17:14:50.982Z,11.32
2022-12-05T17:17:18.970Z,10.48
2022-12-05T17:19:45.999Z,9.80
2022-12-05T17:22:15.508Z,9.00
2022-12-05T17:24:42.603Z,9.35
2022-12-05T17:27:12.970Z,9.40
2022-12-05T17:29:40.042Z,9.82
2022-12-05T17:32:07.052Z,9.75
2022-12-05T17:34:33.954Z,11.05
2022-12-05T17:37:00.964Z,10.18
2022-12-05T17:39:28.821Z,10.57
2022-12-05T17:41:56.349Z,10.90
2022-12-05T17:44:23.666Z,10.48
2022-12-05T17:46:50.642Z,9.77
2022-12-05T17:49:18.328Z,9.35
2022-12-05T17:52:20.109Z,10.07
2022-12-05T17:54:33.212Z,11.07
2022-12-05T17:57:00.148Z,10.07
2022-12-05T17:59:27.243Z,10.10
2022-12-05T18:01:54.256Z,9.93
2022-12-05T18:04:23.592Z,10.73
2022-12-05T18:06:51.320Z,10.20
2022-12-05T18:09:18.401Z,9.63
2022-12-05T18:11:45.356Z,11.38
2022-12-05T18:14:12.395Z,10.82
2022-12-05T18:16:39.389Z,10.93
2022-12-05T18:19:08.163Z,10.73
2022-12-05T18:21:35.740Z,11.63
2022-12-05T18:24:02.763Z,12.63
2022-12-05T18:26:29.824Z,10.13
2022-12-05T18:28:58.834Z,11.57
2022-12-05T18:31:26.117Z,11.75
2022-12-05T18:33:53.124Z,11.40
2022-12-05T18:36:21.543Z,11.82
2022-12-05T18:38:54.049Z,12.45
2022-12-05T18:41:23.548Z,12.75
2022-12-05T18:43:51.106Z,38.20
2022-12-05T18:46:18.391Z,17.30
2022-12-05T18:48:47.637Z,12.32
2022-12-05T18:51:17.907Z,26.92
2022-12-05T18:53:52.414Z,16.60
2022-12-05T18:56:25.886Z,14.10
2022-12-05T18:59:05.772Z,14.07
2022-12-05T19:01:35.581Z,13.38
2022-12-05T19:04:04.224Z,13.48
2022-12-05T19:06:32.911Z,12.70
2022-12-05T19:09:07.676Z,11.70
2022-12-05T19:11:35.210Z,11.85
2022-12-05T19:14:04.352Z,13.55
2022-12-05T19:16:33.344Z,13.05
2022-12-05T19:19:02.245Z,16.92
2022-12-05T19:21:31.493Z,14.18
2022-12-05T19:23:59.665Z,14.20
2022-12-05T19:26:26.966Z,13.63
2022-12-05T19:28:54.415Z,16.63
2022-12-05T19:31:25.255Z,13.90
2022-12-05T19:33:58.699Z,15.02
2022-12-05T19:36:37.592Z,18.20
2022-12-05T19:39:16.469Z,16.08
2022-12-05T19:41:43.507Z,14.10
2022-12-05T19:44:10.515Z,14.23
2022-12-05T19:46:37.814Z,14.68
2022-12-05T19:49:15.632Z,15.30
2022-12-05T19:52:01.009Z,13.30
2022-12-05T19:54:27.942Z,14.48
2022-12-05T19:56:58.290Z,14.13
2022-12-05T19:59:25.338Z,15.27
2022-12-05T20:01:52.318Z,16.00
2022-12-05T20:04:19.779Z,16.48
2022-12-05T20:06:48.865Z,14.85
2022-12-05T20:09:19.664Z,15.95
2022-12-05T20:11:54.244Z,15.18
2022-12-05T20:14:23.665Z,15.15
2022-12-05T20:16:50.895Z,17.67
2022-12-05T20:19:17.969Z,18.02
2022-12-05T20:21:44.903Z,21.90
2022-12-05T20:24:12.397Z,16.08
2022-12-05T20:26:41.815Z,15.35
2022-12-05T20:29:09.601Z,17.58
2022-12-05T20:31:39.460Z,16.73
2022-12-05T20:34:09.280Z,16.65
2022-12-05T20:36:36.696Z,15.43
2022-12-05T20:39:11.025Z,15.43
2022-12-05T20:41:38.085Z,16.90
2022-12-05T20:44:07.263Z,16.77
2022-12-05T20:46:35.341Z,16.67
2022-12-05T20:49:02.529Z,15.93
2022-12-05T20:51:32.292Z,16.55
2022-12-05T20:54:01.074Z,16.50
2022-12-05T20:56:31.804Z,16.73
2022-12-05T20:59:01.704Z,16.40
2022-12-05T21:01:30.956Z,17.35
2022-12-05T21:03:58.272Z,17.10
2022-12-05T21:06:31.329Z,17.50
2022-12-05T21:08:59.616Z,17.50
2022-12-05T21:11:28.462Z,17.17
2022-12-05T21:13:57.538Z,17.58
2022-12-05T21:16:24.775Z,16.08
2022-12-05T21:18:52.413Z,16.65
2022-12-05T21:21:22.372Z,21.10
2022-12-05T21:24:00.023Z,17.50
2022-12-05T21:26:29.208Z,17.42
2022-12-05T21:28:56.788Z,20.27
2022-12-05T21:31:28.763Z,23.63
2022-12-05T21:33:58.519Z,20.85
2022-12-05T21:36:27.352Z,26.73
2022-12-05T21:38:56.568Z,29.88
2022-12-05T21:41:24.934Z,22.13
2022-12-05T21:43:55.484Z,22.15
2022-12-05T21:46:26.836Z,21.23
2022-12-05T21:48:54.350Z,22.77
2022-12-05T21:51:22.234Z,23.33
2022-12-05T21:53:49.565Z,20.30
2022-12-05T21:56:19.528Z,24.15
2022-12-05T21:58:47.293Z,24.15
2022-12-05T22:01:23.510Z,18.90
2022-12-05T22:03:56.029Z,26.80
2022-12-05T22:06:23.118Z,24.75
2022-12-05T22:08:50.065Z,19.38
2022-12-05T22:11:20.001Z,29.45
2022-12-05T22:13:48.900Z,23.75
2022-12-05T22:16:17.391Z,29.67
2022-12-05T22:18:45.151Z,28.48
2022-12-05T22:21:14.539Z,23.00
2022-12-05T22:23:41.851Z,19.40
2022-12-05T22:26:10.978Z,18.17
2022-12-05T22:28:38.852Z,21.35
2022-12-05T22:31:10.794Z,17.35
2022-12-05T22:33:37.881Z,22.85
2022-12-05T22:36:07.523Z,19.80
2022-12-05T22:38:36.878Z,21.70
2022-12-05T22:41:14.673Z,20.23
2022-12-05T22:43:43.479Z,20.20
2022-12-05T22:46:13.080Z,20.48
2022-12-05T22:48:40.426Z,18.27
2022-12-05T22:51:08.495Z,26.98
2022-12-05T22:53:36.814Z,23.10
2022-12-05T22:56:08.243Z,24.00
2022-12-05T22:58:35.881Z,21.40
2022-12-05T23:01:24.066Z,24.50
2022-12-05T23:04:05.563Z,20.23
2022-12-05T23:06:35.384Z,26.92
2022-12-05T23:09:05.304Z,31.67
2022-12-05T23:11:32.574Z,22.45
2022-12-05T23:14:02.824Z,21.98
2022-12-05T23:16:32.181Z,18.50
2022-12-05T23:19:01.922Z,23.83
2022-12-05T23:21:35.375Z,23.30
2022-12-05T23:24:04.947Z,16.95
2022-12-05T23:26:41.097Z,21.58
2022-12-05T23:29:08.341Z,18.88
2022-12-05T23:31:35.420Z,17.17
2022-12-05T23:34:03.760Z,16.13
2022-12-05T23:36:33.171Z,16.02
2022-12-05T23:39:00.512Z,16.02
2022-12-05T23:41:27.700Z,20.50
2022-12-05T23:43:55.686Z,16.92
2022-12-05T23:46:25.467Z,18.95
2022-12-05T23:48:52.711Z,19.30
2022-12-05T23:51:25.191Z,16.17
2022-12-05T23:53:54.788Z,17.27
2022-12-05T23:56:24.839Z,17.77
2022-12-05T23:58:52.900Z,13.98
